sensor_id;sensor_type;location;lat;lon;timestamp;P1;durP1;ratioP1;P2;durP2;ratioP2
6864;SDS011;3471;49.678;8.388;2023-06-26T00:00:11;12.15;;;5.95;;
6864;SDS011;3471;49.678;8.388;2023-06-26T00:02:37;5.30;;;4.80;;
6864;SDS011;3471;49.678;8.388;2023-06-26T00:05:03;6.93;;;5.83;;
6864;SDS011;3471;49.678;8.388;2023-06-26T00:07:29;15.98;;;6.38;;
6864;SDS011;3471;49.678;8.388;2023-06-26T00:09:56;8.70;;;6.22;;
6864;SDS011;3471;49.678;8.388;2023-06-26T00:12:23;7.13;;;5.93;;
6864;SDS011;3471;49.678;8.388;2023-06-26T00:14:49;8.05;;;5.20;;
6864;SDS011;3471;49.678;8.388;2023-06-26T00:17:14;8.23;;;6.30;;
6864;SDS011;3471;49.678;8.388;2023-06-26T00:19:40;6.57;;;5.00;;
6864;SDS011;3471;49.678;8.388;2023-06-26T00:22:05;7.00;;;5.80;;
6864;SDS011;3471;49.678;8.388;2023-06-26T00:24:31;8.60;;;6.00;;
6864;SDS011;3471;49.678;8.388;2023-06-26T00:26:57;6.60;;;5.90;;
6864;SDS011;3471;49.678;8.388;2023-06-26T00:29:23;6.20;;;5.40;;
6864;SDS011;3471;49.678;8.388;2023-06-26T00:31:49;9.30;;;6.07;;
6864;SDS011;3471;49.678;8.388;2023-06-26T00:34:15;5.87;;;5.20;;
6864;SDS011;3471;49.678;8.388;2023-06-26T00:36:40;6.43;;;5.70;;
6864;SDS011;3471;49.678;8.388;2023-06-26T00:39:08;5.45;;;4.80;;
6864;SDS011;3471;49.678;8.388;2023-06-26T00:41:35;5.45;;;4.90;;
6864;SDS011;3471;49.678;8.388;2023-06-26T00:44:01;7.07;;;5.43;;
6864;SDS011;3471;49.678;8.388;2023-06-26T00:46:28;8.65;;;5.65;;
6864;SDS011;3471;49.678;8.388;2023-06-26T00:48:54;6.85;;;5.93;;
6864;SDS011;3471;49.678;8.388;2023-06-26T00:51:20;6.77;;;5.60;;
6864;SDS011;3471;49.678;8.388;2023-06-26T00:53:45;5.50;;;4.43;;
6864;SDS011;3471;49.678;8.388;2023-06-26T00:56:13;10.53;;;6.17;;
6864;SDS011;3471;49.678;8.388;2023-06-26T00:58:46;6.63;;;5.43;;
6864;SDS011;3471;49.678;8.388;2023-06-26T01:01:12;8.73;;;7.23;;
6864;SDS011;3471;49.678;8.388;2023-06-26T01:03:45;7.93;;;4.85;;
6864;SDS011;3471;49.678;8.388;2023-06-26T01:06:16;5.18;;;4.55;;
6864;SDS011;3471;49.678;8.388;2023-06-26T01:08:44;10.95;;;5.07;;
6864;SDS011;3471;49.678;8.388;2023-06-26T01:11:10;9.27;;;5.57;;
6864;SDS011;3471;49.678;8.388;2023-06-26T01:13:36;7.90;;;6.28;;
6864;SDS011;3471;49.678;8.388;2023-06-26T01:16:03;9.40;;;5.80;;
6864;SDS011;3471;49.678;8.388;2023-06-26T01:18:30;9.45;;;6.20;;
6864;SDS011;3471;49.678;8.388;2023-06-26T01:20:57;5.82;;;4.95;;
6864;SDS011;3471;49.678;8.388;2023-06-26T01:23:43;10.63;;;6.53;;
6864;SDS011;3471;49.678;8.388;2023-06-26T01:26:31;7.78;;;5.13;;
6864;SDS011;3471;49.678;8.388;2023-06-26T01:29:00;13.25;;;6.25;;
6864;SDS011;3471;49.678;8.388;2023-06-26T01:31:27;7.43;;;6.07;;
6864;SDS011;3471;49.678;8.388;2023-06-26T01:33:55;6.70;;;5.30;;
6864;SDS011;3471;49.678;8.388;2023-06-26T01:36:22;9.30;;;5.50;;
6864;SDS011;3471;49.678;8.388;2023-06-26T01:38:48;6.40;;;5.70;;
6864;SDS011;3471;49.678;8.388;2023-06-26T01:41:14;5.82;;;5.22;;
6864;SDS011;3471;49.678;8.388;2023-06-26T01:43:47;8.73;;;6.20;;
6864;SDS011;3471;49.678;8.388;2023-06-26T01:46:46;9.20;;;6.30;;
6864;SDS011;3471;49.678;8.388;2023-06-26T01:57:46;7.32;;;6.55;;
6864;SDS011;3471;49.678;8.388;2023-06-26T02:00:16;6.32;;;5.72;;
6864;SDS011;3471;49.678;8.388;2023-06-26T02:02:44;7.65;;;5.40;;
6864;SDS011;3471;49.678;8.388;2023-06-26T02:05:11;9.98;;;7.40;;
6864;SDS011;3471;49.678;8.388;2023-06-26T02:07:37;6.30;;;5.47;;
6864;SDS011;3471;49.678;8.388;2023-06-26T02:10:03;11.03;;;7.63;;
6864;SDS011;3471;49.678;8.388;2023-06-26T02:12:28;8.67;;;6.43;;
6864;SDS011;3471;49.678;8.388;2023-06-26T02:14:54;7.40;;;6.20;;
6864;SDS011;3471;49.678;8.388;2023-06-26T02:17:20;12.93;;;7.13;;
6864;SDS011;3471;49.678;8.388;2023-06-26T02:19:45;9.33;;;6.80;;
6864;SDS011;3471;49.678;8.388;2023-06-26T02:22:14;9.15;;;6.05;;
6864;SDS011;3471;49.678;8.388;2023-06-26T02:24:41;7.55;;;5.80;;
6864;SDS011;3471;49.678;8.388;2023-06-26T02:27:07;8.03;;;6.10;;
6864;SDS011;3471;49.678;8.388;2023-06-26T02:29:32;10.13;;;6.33;;
6864;SDS011;3471;49.678;8.388;2023-06-26T02:31:58;9.10;;;6.10;;
6864;SDS011;3471;49.678;8.388;2023-06-26T02:34:23;11.33;;;6.70;;
6864;SDS011;3471;49.678;8.388;2023-06-26T02:36:49;11.40;;;6.90;;
6864;SDS011;3471;49.678;8.388;2023-06-26T02:39:14;8.10;;;5.60;;
6864;SDS011;3471;49.678;8.388;2023-06-26T02:41:40;9.43;;;7.33;;
6864;SDS011;3471;49.678;8.388;2023-06-26T02:44:06;11.43;;;7.13;;
6864;SDS011;3471;49.678;8.388;2023-06-26T02:46:31;8.50;;;6.40;;
6864;SDS011;3471;49.678;8.388;2023-06-26T02:48:58;9.80;;;6.60;;
6864;SDS011;3471;49.678;8.388;2023-06-26T02:51:24;9.07;;;6.50;;
6864;SDS011;3471;49.678;8.388;2023-06-26T02:53:50;7.40;;;6.57;;
6864;SDS011;3471;49.678;8.388;2023-06-26T02:56:15;7.50;;;4.80;;
6864;SDS011;3471;49.678;8.388;2023-06-26T02:58:41;9.37;;;6.63;;
6864;SDS011;3471;49.678;8.388;2023-06-26T03:01:06;8.97;;;5.80;;
6864;SDS011;3471;49.678;8.388;2023-06-26T03:03:32;7.60;;;5.50;;
6864;SDS011;3471;49.678;8.388;2023-06-26T03:06:05;7.18;;;6.22;;
6864;SDS011;3471;49.678;8.388;2023-06-26T03:08:32;13.13;;;6.95;;
6864;SDS011;3471;49.678;8.388;2023-06-26T03:10:58;5.80;;;5.25;;
6864;SDS011;3471;49.678;8.388;2023-06-26T03:13:24;8.33;;;5.93;;
6864;SDS011;3471;49.678;8.388;2023-06-26T03:15:49;9.40;;;6.10;;
6864;SDS011;3471;49.678;8.388;2023-06-26T03:18:15;9.33;;;6.63;;
6864;SDS011;3471;49.678;8.388;2023-06-26T03:20:41;9.30;;;6.43;;
6864;SDS011;3471;49.678;8.388;2023-06-26T03:23:06;14.97;;;6.03;;
6864;SDS011;3471;49.678;8.388;2023-06-26T03:25:32;9.77;;;6.50;;
6864;SDS011;3471;49.678;8.388;2023-06-26T03:27:57;7.57;;;6.77;;
6864;SDS011;3471;49.678;8.388;2023-06-26T03:30:23;8.50;;;7.70;;
6864;SDS011;3471;49.678;8.388;2023-06-26T03:32:48;8.20;;;6.30;;
6864;SDS011;3471;49.678;8.388;2023-06-26T03:35:14;11.95;;;8.23;;
6864;SDS011;3471;49.678;8.388;2023-06-26T03:37:39;7.35;;;6.65;;
6864;SDS011;3471;49.678;8.388;2023-06-26T03:40:05;7.78;;;7.07;;
6864;SDS011;3471;49.678;8.388;2023-06-26T03:42:31;8.90;;;6.77;;
6864;SDS011;3471;49.678;8.388;2023-06-26T03:44:57;10.23;;;7.37;;
6864;SDS011;3471;49.678;8.388;2023-06-26T03:47:22;9.20;;;6.10;;
6864;SDS011;3471;49.678;8.388;2023-06-26T03:49:48;7.67;;;6.00;;
6864;SDS011;3471;49.678;8.388;2023-06-26T03:52:14;9.50;;;7.40;;
6864;SDS011;3471;49.678;8.388;2023-06-26T03:54:39;12.03;;;6.03;;
6864;SDS011;3471;49.678;8.388;2023-06-26T03:57:05;8.73;;;5.83;;
6864;SDS011;3471;49.678;8.388;2023-06-26T03:59:30;8.50;;;6.67;;
6864;SDS011;3471;49.678;8.388;2023-06-26T04:01:56;14.50;;;7.50;;
6864;SDS011;3471;49.678;8.388;2023-06-26T04:04:22;11.20;;;7.70;;
6864;SDS011;3471;49.678;8.388;2023-06-26T04:06:47;17.33;;;7.30;;
6864;SDS011;3471;49.678;8.388;2023-06-26T04:09:13;10.10;;;6.30;;
6864;SDS011;3471;49.678;8.388;2023-06-26T04:11:38;13.93;;;6.97;;
6864;SDS011;3471;49.678;8.388;2023-06-26T04:14:04;9.15;;;5.65;;
6864;SDS011;3471;49.678;8.388;2023-06-26T04:16:30;10.48;;;7.47;;
6864;SDS011;3471;49.678;8.388;2023-06-26T04:18:55;10.88;;;7.45;;
6864;SDS011;3471;49.678;8.388;2023-06-26T04:21:21;13.27;;;9.20;;
6864;SDS011;3471;49.678;8.388;2023-06-26T04:23:49;14.80;;;6.97;;
6864;SDS011;3471;49.678;8.388;2023-06-26T04:26:15;17.13;;;8.65;;
6864;SDS011;3471;49.678;8.388;2023-06-26T04:28:41;11.03;;;7.90;;
6864;SDS011;3471;49.678;8.388;2023-06-26T04:31:08;10.68;;;7.88;;
6864;SDS011;3471;49.678;8.388;2023-06-26T04:33:34;7.38;;;6.60;;
6864;SDS011;3471;49.678;8.388;2023-06-26T04:36:03;11.53;;;7.70;;
6864;SDS011;3471;49.678;8.388;2023-06-26T04:38:30;7.80;;;5.68;;
6864;SDS011;3471;49.678;8.388;2023-06-26T04:40:59;9.80;;;7.22;;
6864;SDS011;3471;49.678;8.388;2023-06-26T04:43:25;13.63;;;7.25;;
6864;SDS011;3471;49.678;8.388;2023-06-26T04:45:51;10.45;;;7.30;;
6864;SDS011;3471;49.678;8.388;2023-06-26T04:48:16;9.33;;;8.40;;
6864;SDS011;3471;49.678;8.388;2023-06-26T04:50:42;9.50;;;6.97;;
6864;SDS011;3471;49.678;8.388;2023-06-26T04:53:08;13.75;;;7.13;;
6864;SDS011;3471;49.678;8.388;2023-06-26T04:55:34;9.50;;;7.75;;
6864;SDS011;3471;49.678;8.388;2023-06-26T04:58:00;10.87;;;7.67;;
6864;SDS011;3471;49.678;8.388;2023-06-26T05:00:25;9.13;;;7.47;;
6864;SDS011;3471;49.678;8.388;2023-06-26T05:02:51;10.30;;;7.80;;
6864;SDS011;3471;49.678;8.388;2023-06-26T05:05:29;10.18;;;6.70;;
6864;SDS011;3471;49.678;8.388;2023-06-26T05:07:54;7.25;;;5.75;;
6864;SDS011;3471;49.678;8.388;2023-06-26T05:10:20;9.07;;;6.13;;
6864;SDS011;3471;49.678;8.388;2023-06-26T05:12:46;9.13;;;5.75;;
6864;SDS011;3471;49.678;8.388;2023-06-26T05:15:12;8.63;;;7.77;;
6864;SDS011;3471;49.678;8.388;2023-06-26T05:17:37;19.90;;;8.00;;
6864;SDS011;3471;49.678;8.388;2023-06-26T05:20:03;10.57;;;8.97;;
6864;SDS011;3471;49.678;8.388;2023-06-26T05:22:30;10.30;;;6.47;;
6864;SDS011;3471;49.678;8.388;2023-06-26T05:24:57;12.57;;;7.80;;
6864;SDS011;3471;49.678;8.388;2023-06-26T05:27:25;8.85;;;7.95;;
6864;SDS011;3471;49.678;8.388;2023-06-26T05:29:51;10.07;;;9.07;;
6864;SDS011;3471;49.678;8.388;2023-06-26T05:32:17;10.88;;;8.90;;
6864;SDS011;3471;49.678;8.388;2023-06-26T05:34:45;10.27;;;8.20;;
6864;SDS011;3471;49.678;8.388;2023-06-26T05:37:13;13.85;;;7.75;;
6864;SDS011;3471;49.678;8.388;2023-06-26T05:39:44;10.60;;;7.90;;
6864;SDS011;3471;49.678;8.388;2023-06-26T05:42:10;10.40;;;8.63;;
6864;SDS011;3471;49.678;8.388;2023-06-26T05:44:36;10.33;;;8.17;;
6864;SDS011;3471;49.678;8.388;2023-06-26T05:47:02;11.03;;;8.93;;
6864;SDS011;3471;49.678;8.388;2023-06-26T05:49:27;14.27;;;8.57;;
6864;SDS011;3471;49.678;8.388;2023-06-26T05:51:53;13.70;;;7.90;;
6864;SDS011;3471;49.678;8.388;2023-06-26T05:54:19;7.72;;;6.93;;
6864;SDS011;3471;49.678;8.388;2023-06-26T05:56:45;11.82;;;8.55;;
6864;SDS011;3471;49.678;8.388;2023-06-26T05:59:12;21.65;;;7.90;;
6864;SDS011;3471;49.678;8.388;2023-06-26T06:01:40;11.10;;;8.57;;
6864;SDS011;3471;49.678;8.388;2023-06-26T06:04:06;15.90;;;9.20;;
6864;SDS011;3471;49.678;8.388;2023-06-26T06:06:31;9.65;;;8.65;;
6864;SDS011;3471;49.678;8.388;2023-06-26T06:08:57;10.20;;;8.68;;
6864;SDS011;3471;49.678;8.388;2023-06-26T06:11:22;9.03;;;8.13;;
6864;SDS011;3471;49.678;8.388;2023-06-26T06:13:48;14.20;;;9.77;;
6864;SDS011;3471;49.678;8.388;2023-06-26T06:16:14;9.10;;;8.20;;
6864;SDS011;3471;49.678;8.388;2023-06-26T06:18:40;12.52;;;10.93;;
6864;SDS011;3471;49.678;8.388;2023-06-26T06:21:06;9.43;;;8.52;;
6864;SDS011;3471;49.678;8.388;2023-06-26T06:23:31;13.77;;;10.07;;
6864;SDS011;3471;49.678;8.388;2023-06-26T06:25:57;9.87;;;8.87;;
6864;SDS011;3471;49.678;8.388;2023-06-26T06:28:22;10.47;;;9.10;;
6864;SDS011;3471;49.678;8.388;2023-06-26T06:30:48;9.60;;;7.80;;
6864;SDS011;3471;49.678;8.388;2023-06-26T06:33:14;14.70;;;10.00;;
6864;SDS011;3471;49.678;8.388;2023-06-26T06:35:39;9.85;;;8.40;;
6864;SDS011;3471;49.678;8.388;2023-06-26T06:38:05;9.07;;;8.17;;
6864;SDS011;3471;49.678;8.388;2023-06-26T06:40:30;14.30;;;10.10;;
6864;SDS011;3471;49.678;8.388;2023-06-26T06:42:56;12.27;;;8.32;;
6864;SDS011;3471;49.678;8.388;2023-06-26T06:45:21;9.52;;;8.45;;
6864;SDS011;3471;49.678;8.388;2023-06-26T06:47:47;9.60;;;8.60;;
6864;SDS011;3471;49.678;8.388;2023-06-26T06:50:13;12.63;;;9.13;;
6864;SDS011;3471;49.678;8.388;2023-06-26T06:52:40;18.52;;;10.10;;
6864;SDS011;3471;49.678;8.388;2023-06-26T06:55:07;10.90;;;8.10;;
6864;SDS011;3471;49.678;8.388;2023-06-26T06:57:36;13.40;;;10.23;;
6864;SDS011;3471;49.678;8.388;2023-06-26T07:00:04;7.28;;;6.32;;
6864;SDS011;3471;49.678;8.388;2023-06-26T07:02:30;9.97;;;8.53;;
6864;SDS011;3471;49.678;8.388;2023-06-26T07:04:55;10.87;;;7.13;;
6864;SDS011;3471;49.678;8.388;2023-06-26T07:07:21;13.13;;;8.73;;
6864;SDS011;3471;49.678;8.388;2023-06-26T07:09:46;11.60;;;9.00;;
6864;SDS011;3471;49.678;8.388;2023-06-26T07:12:12;11.07;;;8.07;;
6864;SDS011;3471;49.678;8.388;2023-06-26T07:14:38;8.57;;;6.80;;
6864;SDS011;3471;49.678;8.388;2023-06-26T07:17:04;9.45;;;8.45;;
6864;SDS011;3471;49.678;8.388;2023-06-26T07:19:29;7.27;;;5.87;;
6864;SDS011;3471;49.678;8.388;2023-06-26T07:21:55;10.40;;;8.90;;
6864;SDS011;3471;49.678;8.388;2023-06-26T07:24:20;11.10;;;6.97;;
6864;SDS011;3471;49.678;8.388;2023-06-26T07:26:46;9.68;;;7.38;;
6864;SDS011;3471;49.678;8.388;2023-06-26T07:29:12;8.87;;;7.10;;
6864;SDS011;3471;49.678;8.388;2023-06-26T07:31:37;15.63;;;8.63;;
6864;SDS011;3471;49.678;8.388;2023-06-26T07:34:03;9.65;;;6.82;;
6864;SDS011;3471;49.678;8.388;2023-06-26T07:36:28;8.98;;;7.85;;
6864;SDS011;3471;49.678;8.388;2023-06-26T07:38:54;12.40;;;8.23;;
6864;SDS011;3471;49.678;8.388;2023-06-26T07:41:19;9.87;;;8.10;;
6864;SDS011;3471;49.678;8.388;2023-06-26T07:43:45;10.25;;;7.63;;
6864;SDS011;3471;49.678;8.388;2023-06-26T07:46:10;8.10;;;7.30;;
6864;SDS011;3471;49.678;8.388;2023-06-26T07:48:36;7.27;;;5.80;;
6864;SDS011;3471;49.678;8.388;2023-06-26T07:51:01;9.55;;;6.60;;
6864;SDS011;3471;49.678;8.388;2023-06-26T07:53:27;9.50;;;7.40;;
6864;SDS011;3471;49.678;8.388;2023-06-26T07:55:53;9.83;;;7.67;;
6864;SDS011;3471;49.678;8.388;2023-06-26T07:58:18;9.63;;;8.00;;
6864;SDS011;3471;49.678;8.388;2023-06-26T08:00:44;6.73;;;6.13;;
6864;SDS011;3471;49.678;8.388;2023-06-26T08:03:09;7.27;;;6.57;;
6864;SDS011;3471;49.678;8.388;2023-06-26T08:05:35;10.57;;;8.52;;
6864;SDS011;3471;49.678;8.388;2023-06-26T08:08:00;10.07;;;6.97;;
6864;SDS011;3471;49.678;8.388;2023-06-26T08:10:27;11.07;;;7.30;;
6864;SDS011;3471;49.678;8.388;2023-06-26T08:12:53;10.20;;;6.67;;
6864;SDS011;3471;49.678;8.388;2023-06-26T08:15:20;10.60;;;7.38;;
6864;SDS011;3471;49.678;8.388;2023-06-26T08:17:46;7.63;;;6.93;;
6864;SDS011;3471;49.678;8.388;2023-06-26T08:20:12;12.27;;;7.32;;
6864;SDS011;3471;49.678;8.388;2023-06-26T08:22:37;9.05;;;7.40;;
6864;SDS011;3471;49.678;8.388;2023-06-26T08:25:03;8.53;;;7.60;;
6864;SDS011;3471;49.678;8.388;2023-06-26T08:27:30;25.02;;;7.00;;
6864;SDS011;3471;49.678;8.388;2023-06-26T08:29:57;6.50;;;5.85;;
6864;SDS011;3471;49.678;8.388;2023-06-26T08:32:22;7.60;;;6.10;;
6864;SDS011;3471;49.678;8.388;2023-06-26T08:34:48;16.30;;;6.80;;
6864;SDS011;3471;49.678;8.388;2023-06-26T08:37:13;13.90;;;7.93;;
6864;SDS011;3471;49.678;8.388;2023-06-26T08:39:39;7.45;;;6.40;;
6864;SDS011;3471;49.678;8.388;2023-06-26T08:42:04;12.63;;;7.10;;
6864;SDS011;3471;49.678;8.388;2023-06-26T08:44:30;11.73;;;6.93;;
6864;SDS011;3471;49.678;8.388;2023-06-26T08:46:56;13.10;;;5.70;;
6864;SDS011;3471;49.678;8.388;2023-06-26T08:52:13;6.93;;;6.23;;
6864;SDS011;3471;49.678;8.388;2023-06-26T08:54:45;7.85;;;6.55;;
6864;SDS011;3471;49.678;8.388;2023-06-26T08:57:15;6.25;;;5.65;;
6864;SDS011;3471;49.678;8.388;2023-06-26T08:59:44;7.07;;;5.13;;
6864;SDS011;3471;49.678;8.388;2023-06-26T09:02:10;6.75;;;6.05;;
6864;SDS011;3471;49.678;8.388;2023-06-26T09:04:37;6.43;;;5.25;;
6864;SDS011;3471;49.678;8.388;2023-06-26T09:07:03;6.53;;;5.95;;
6864;SDS011;3471;49.678;8.388;2023-06-26T09:09:29;5.80;;;5.10;;
6864;SDS011;3471;49.678;8.388;2023-06-26T09:11:55;7.00;;;5.53;;
6864;SDS011;3471;49.678;8.388;2023-06-26T09:14:21;6.72;;;6.13;;
6864;SDS011;3471;49.678;8.388;2023-06-26T09:16:46;6.70;;;5.90;;
6864;SDS011;3471;49.678;8.388;2023-06-26T09:19:12;6.80;;;5.43;;
6864;SDS011;3471;49.678;8.388;2023-06-26T09:21:41;7.20;;;5.97;;
6864;SDS011;3471;49.678;8.388;2023-06-26T09:24:08;7.53;;;5.15;;
6864;SDS011;3471;49.678;8.388;2023-06-26T09:26:37;6.10;;;5.22;;
6864;SDS011;3471;49.678;8.388;2023-06-26T09:29:05;10.30;;;6.18;;
6864;SDS011;3471;49.678;8.388;2023-06-26T09:31:31;11.30;;;6.35;;
6864;SDS011;3471;49.678;8.388;2023-06-26T09:33:58;8.10;;;6.23;;
6864;SDS011;3471;49.678;8.388;2023-06-26T09:36:26;7.10;;;6.40;;
6864;SDS011;3471;49.678;8.388;2023-06-26T09:38:53;6.72;;;6.10;;
6864;SDS011;3471;49.678;8.388;2023-06-26T09:41:19;8.60;;;5.68;;
6864;SDS011;3471;49.678;8.388;2023-06-26T09:43:49;7.60;;;6.20;;
6864;SDS011;3471;49.678;8.388;2023-06-26T09:46:27;5.20;;;4.70;;
6864;SDS011;3471;49.678;8.388;2023-06-26T09:49:03;6.95;;;6.25;;
6864;SDS011;3471;49.678;8.388;2023-06-26T09:51:31;6.70;;;4.75;;
6864;SDS011;3471;49.678;8.388;2023-06-26T09:53:58;6.20;;;5.60;;
6864;SDS011;3471;49.678;8.388;2023-06-26T09:56:27;8.77;;;6.53;;
6864;SDS011;3471;49.678;8.388;2023-06-26T09:58:55;7.05;;;5.72;;
6864;SDS011;3471;49.678;8.388;2023-06-26T10:01:22;10.38;;;5.55;;
6864;SDS011;3471;49.678;8.388;2023-06-26T10:03:49;6.35;;;5.65;;
6864;SDS011;3471;49.678;8.388;2023-06-26T10:06:14;5.53;;;5.05;;
6864;SDS011;3471;49.678;8.388;2023-06-26T10:08:44;7.15;;;5.78;;
6864;SDS011;3471;49.678;8.388;2023-06-26T10:11:11;6.03;;;4.97;;
6864;SDS011;3471;49.678;8.388;2023-06-26T10:13:42;13.70;;;5.55;;
6864;SDS011;3471;49.678;8.388;2023-06-26T10:16:11;4.73;;;4.23;;
6864;SDS011;3471;49.678;8.388;2023-06-26T10:18:39;5.72;;;5.22;;
6864;SDS011;3471;49.678;8.388;2023-06-26T10:21:06;4.90;;;4.38;;
6864;SDS011;3471;49.678;8.388;2023-06-26T10:23:33;7.15;;;5.57;;
6864;SDS011;3471;49.678;8.388;2023-06-26T10:26:00;5.93;;;5.13;;
6864;SDS011;3471;49.678;8.388;2023-06-26T10:28:26;5.90;;;4.40;;
6864;SDS011;3471;49.678;8.388;2023-06-26T10:30:55;6.95;;;5.50;;
6864;SDS011;3471;49.678;8.388;2023-06-26T10:33:23;12.15;;;5.80;;
6864;SDS011;3471;49.678;8.388;2023-06-26T10:35:49;5.17;;;4.67;;
6864;SDS011;3471;49.678;8.388;2023-06-26T10:38:15;5.93;;;5.17;;
6864;SDS011;3471;49.678;8.388;2023-06-26T10:40:44;5.22;;;4.82;;
6864;SDS011;3471;49.678;8.388;2023-06-26T10:43:11;5.40;;;4.63;;
6864;SDS011;3471;49.678;8.388;2023-06-26T10:45:48;7.95;;;5.25;;
6864;SDS011;3471;49.678;8.388;2023-06-26T10:48:18;6.00;;;5.40;;
6864;SDS011;3471;49.678;8.388;2023-06-26T10:50:46;7.13;;;5.30;;
6864;SDS011;3471;49.678;8.388;2023-06-26T10:55:59;6.05;;;4.70;;
6864;SDS011;3471;49.678;8.388;2023-06-26T10:58:30;5.32;;;4.82;;
6864;SDS011;3471;49.678;8.388;2023-06-26T11:03:41;10.73;;;5.67;;
6864;SDS011;3471;49.678;8.388;2023-06-26T11:06:12;11.52;;;6.82;;
6864;SDS011;3471;49.678;8.388;2023-06-26T11:11:14;8.75;;;5.78;;
6864;SDS011;3471;49.678;8.388;2023-06-26T11:13:40;10.20;;;6.40;;
6864;SDS011;3471;49.678;8.388;2023-06-26T11:16:07;6.32;;;5.72;;
6864;SDS011;3471;49.678;8.388;2023-06-26T11:18:33;6.45;;;5.20;;
6864;SDS011;3471;49.678;8.388;2023-06-26T11:21:32;5.15;;;4.65;;
6864;SDS011;3471;49.678;8.388;2023-06-26T11:23:51;4.80;;;3.85;;
6864;SDS011;3471;49.678;8.388;2023-06-26T11:26:19;10.20;;;5.03;;
6864;SDS011;3471;49.678;8.388;2023-06-26T11:28:50;6.43;;;5.82;;
6864;SDS011;3471;49.678;8.388;2023-06-26T11:31:29;7.65;;;6.00;;
6864;SDS011;3471;49.678;8.388;2023-06-26T11:33:56;5.07;;;4.53;;
6864;SDS011;3471;49.678;8.388;2023-06-26T11:36:26;6.57;;;5.20;;
6864;SDS011;3471;49.678;8.388;2023-06-26T11:39:02;5.85;;;4.38;;
6864;SDS011;3471;49.678;8.388;2023-06-26T11:41:33;7.43;;;4.88;;
6864;SDS011;3471;49.678;8.388;2023-06-26T11:44:00;4.97;;;4.47;;
6864;SDS011;3471;49.678;8.388;2023-06-26T11:46:30;5.20;;;4.70;;
6864;SDS011;3471;49.678;8.388;2023-06-26T11:48:56;5.93;;;5.32;;
6864;SDS011;3471;49.678;8.388;2023-06-26T11:51:22;5.68;;;4.45;;
6864;SDS011;3471;49.678;8.388;2023-06-26T11:53:48;5.75;;;4.53;;
6864;SDS011;3471;49.678;8.388;2023-06-26T11:56:14;5.30;;;4.80;;
6864;SDS011;3471;49.678;8.388;2023-06-26T12:02:00;5.60;;;5.07;;
6864;SDS011;3471;49.678;8.388;2023-06-26T12:04:19;5.23;;;4.73;;
6864;SDS011;3471;49.678;8.388;2023-06-26T12:06:46;5.95;;;5.45;;
6864;SDS011;3471;49.678;8.388;2023-06-26T12:09:22;5.03;;;4.53;;
6864;SDS011;3471;49.678;8.388;2023-06-26T12:11:51;5.00;;;4.50;;
6864;SDS011;3471;49.678;8.388;2023-06-26T12:14:19;7.10;;;5.65;;
6864;SDS011;3471;49.678;8.388;2023-06-26T12:16:45;5.43;;;4.93;;
6864;SDS011;3471;49.678;8.388;2023-06-26T12:19:12;5.13;;;4.63;;
6864;SDS011;3471;49.678;8.388;2023-06-26T12:24:18;7.30;;;4.97;;
6864;SDS011;3471;49.678;8.388;2023-06-26T12:26:53;7.10;;;5.10;;
6864;SDS011;3471;49.678;8.388;2023-06-26T12:29:24;8.38;;;5.45;;
6864;SDS011;3471;49.678;8.388;2023-06-26T12:31:58;10.52;;;6.43;;
6864;SDS011;3471;49.678;8.388;2023-06-26T12:34:26;7.68;;;5.97;;
6864;SDS011;3471;49.678;8.388;2023-06-26T12:36:53;7.18;;;6.30;;
6864;SDS011;3471;49.678;8.388;2023-06-26T12:39:24;10.33;;;7.60;;
6864;SDS011;3471;49.678;8.388;2023-06-26T12:41:53;10.33;;;6.30;;
6864;SDS011;3471;49.678;8.388;2023-06-26T12:44:21;8.32;;;7.10;;
6864;SDS011;3471;49.678;8.388;2023-06-26T12:46:53;10.83;;;9.07;;
6864;SDS011;3471;49.678;8.388;2023-06-26T12:49:32;11.63;;;7.22;;
6864;SDS011;3471;49.678;8.388;2023-06-26T12:52:03;8.90;;;6.82;;
6864;SDS011;3471;49.678;8.388;2023-06-26T12:54:39;8.55;;;6.82;;
6864;SDS011;3471;49.678;8.388;2023-06-26T12:57:06;7.28;;;6.57;;
6864;SDS011;3471;49.678;8.388;2023-06-26T12:59:33;11.02;;;7.03;;
6864;SDS011;3471;49.678;8.388;2023-06-26T13:02:01;8.90;;;5.90;;
6864;SDS011;3471;49.678;8.388;2023-06-26T13:04:27;6.70;;;6.00;;
6864;SDS011;3471;49.678;8.388;2023-06-26T13:06:53;9.30;;;5.45;;
6864;SDS011;3471;49.678;8.388;2023-06-26T13:09:22;9.80;;;6.50;;
6864;SDS011;3471;49.678;8.388;2023-06-26T13:11:49;9.85;;;6.57;;
6864;SDS011;3471;49.678;8.388;2023-06-26T13:14:14;9.13;;;5.90;;
6864;SDS011;3471;49.678;8.388;2023-06-26T13:16:40;5.17;;;4.43;;
6864;SDS011;3471;49.678;8.388;2023-06-26T13:19:06;6.55;;;4.18;;
6864;SDS011;3471;49.678;8.388;2023-06-26T13:21:32;6.55;;;5.38;;
6864;SDS011;3471;49.678;8.388;2023-06-26T13:23:59;4.47;;;3.92;;
6864;SDS011;3471;49.678;8.388;2023-06-26T13:26:25;6.93;;;4.35;;
6864;SDS011;3471;49.678;8.388;2023-06-26T13:28:53;9.10;;;4.10;;
6864;SDS011;3471;49.678;8.388;2023-06-26T13:31:19;4.40;;;3.92;;
6864;SDS011;3471;49.678;8.388;2023-06-26T13:33:46;5.73;;;3.90;;
6864;SDS011;3471;49.678;8.388;2023-06-26T13:36:13;6.07;;;4.00;;
6864;SDS011;3471;49.678;8.388;2023-06-26T13:38:42;7.50;;;3.63;;
6864;SDS011;3471;49.678;8.388;2023-06-26T13:41:07;10.30;;;3.03;;
6864;SDS011;3471;49.678;8.388;2023-06-26T13:43:33;3.47;;;3.17;;
6864;SDS011;3471;49.678;8.388;2023-06-26T13:45:59;6.88;;;3.55;;
6864;SDS011;3471;49.678;8.388;2023-06-26T13:48:25;4.83;;;3.00;;
6864;SDS011;3471;49.678;8.388;2023-06-26T13:50:51;5.15;;;3.05;;
6864;SDS011;3471;49.678;8.388;2023-06-26T13:53:17;12.55;;;4.70;;
6864;SDS011;3471;49.678;8.388;2023-06-26T13:55:46;9.63;;;4.57;;
6864;SDS011;3471;49.678;8.388;2023-06-26T13:58:11;5.90;;;4.27;;
6864;SDS011;3471;49.678;8.388;2023-06-26T14:00:38;4.22;;;2.83;;
6864;SDS011;3471;49.678;8.388;2023-06-26T14:03:04;3.60;;;3.17;;
6864;SDS011;3471;49.678;8.388;2023-06-26T14:05:32;4.30;;;2.35;;
6864;SDS011;3471;49.678;8.388;2023-06-26T14:08:04;5.23;;;3.73;;
6864;SDS011;3471;49.678;8.388;2023-06-26T14:10:32;6.67;;;2.73;;
6864;SDS011;3471;49.678;8.388;2023-06-26T14:12:58;4.57;;;2.88;;
6864;SDS011;3471;49.678;8.388;2023-06-26T14:15:24;3.05;;;2.42;;
6864;SDS011;3471;49.678;8.388;2023-06-26T14:17:50;4.87;;;2.60;;
6864;SDS011;3471;49.678;8.388;2023-06-26T14:20:16;2.90;;;2.50;;
6864;SDS011;3471;49.678;8.388;2023-06-26T14:22:42;3.10;;;2.80;;
6864;SDS011;3471;49.678;8.388;2023-06-26T14:25:12;2.95;;;2.38;;
6864;SDS011;3471;49.678;8.388;2023-06-26T14:27:38;5.65;;;2.00;;
6864;SDS011;3471;49.678;8.388;2023-06-26T14:30:04;3.00;;;2.67;;
6864;SDS011;3471;49.678;8.388;2023-06-26T14:32:30;3.60;;;2.20;;
6864;SDS011;3471;49.678;8.388;2023-06-26T14:34:56;9.20;;;2.40;;
6864;SDS011;3471;49.678;8.388;2023-06-26T14:37:22;5.30;;;2.42;;
6864;SDS011;3471;49.678;8.388;2023-06-26T14:39:48;3.10;;;2.47;;
6864;SDS011;3471;49.678;8.388;2023-06-26T14:42:14;8.90;;;2.80;;
6864;SDS011;3471;49.678;8.388;2023-06-26T14:44:40;3.03;;;2.20;;
6864;SDS011;3471;49.678;8.388;2023-06-26T14:47:06;5.80;;;2.88;;
6864;SDS011;3471;49.678;8.388;2023-06-26T14:49:31;2.92;;;2.00;;
6864;SDS011;3471;49.678;8.388;2023-06-26T14:51:57;2.60;;;1.80;;
6864;SDS011;3471;49.678;8.388;2023-06-26T14:54:23;2.13;;;1.88;;
6864;SDS011;3471;49.678;8.388;2023-06-26T14:56:49;7.00;;;2.40;;
6864;SDS011;3471;49.678;8.388;2023-06-26T14:59:15;3.40;;;2.20;;
6864;SDS011;3471;49.678;8.388;2023-06-26T15:01:40;6.00;;;3.80;;
6864;SDS011;3471;49.678;8.388;2023-06-26T15:04:06;2.40;;;1.73;;
6864;SDS011;3471;49.678;8.388;2023-06-26T15:06:42;3.60;;;3.30;;
6864;SDS011;3471;49.678;8.388;2023-06-26T15:09:07;7.65;;;3.22;;
6864;SDS011;3471;49.678;8.388;2023-06-26T15:11:34;4.43;;;3.23;;
6864;SDS011;3471;49.678;8.388;2023-06-26T15:14:01;2.92;;;2.08;;
6864;SDS011;3471;49.678;8.388;2023-06-26T15:16:26;6.78;;;2.78;;
6864;SDS011;3471;49.678;8.388;2023-06-26T15:18:52;2.87;;;1.57;;
6864;SDS011;3471;49.678;8.388;2023-06-26T15:21:18;5.63;;;2.65;;
6864;SDS011;3471;49.678;8.388;2023-06-26T15:23:44;7.33;;;2.03;;
6864;SDS011;3471;49.678;8.388;2023-06-26T15:26:10;3.58;;;2.28;;
6864;SDS011;3471;49.678;8.388;2023-06-26T15:28:36;2.92;;;2.20;;
6864;SDS011;3471;49.678;8.388;2023-06-26T15:31:01;2.60;;;2.10;;
6864;SDS011;3471;49.678;8.388;2023-06-26T15:33:27;2.25;;;1.73;;